createdAt,value
2022-08-20T00:04:52.917Z,25.18
2022-08-20T00:10:15.170Z,25.20
2022-08-20T00:15:38.193Z,25.13
2022-08-20T00:21:00.029Z,24.75
2022-08-20T00:26:23.577Z,24.66
2022-08-20T00:31:45.395Z,24.69
2022-08-20T00:37:07.277Z,24.53
2022-08-20T00:42:29.095Z,24.44
2022-08-20T00:47:51.661Z,24.34
2022-08-20T00:53:14.003Z,24.44
2022-08-20T00:58:37.642Z,24.41
2022-08-20T01:03:59.565Z,24.13
2022-08-20T01:09:50.170Z,23.95
2022-08-20T01:15:06.439Z,23.95
2022-08-20T01:20:31.903Z,23.87
2022-08-20T01:26:09.479Z,23.73
2022-08-20T01:31:33.849Z,23.73
2022-08-20T01:36:58.285Z,23.60
2022-08-20T01:42:31.885Z,23.52
2022-08-20T01:47:53.715Z,23.42
2022-08-20T01:53:18.381Z,23.24
2022-08-20T01:58:45.030Z,23.07
2022-08-20T02:04:09.939Z,23.26
2022-08-20T02:09:38.599Z,23.12
2022-08-20T02:15:00.580Z,23.14
2022-08-20T02:20:28.609Z,23.05
2022-08-20T02:25:50.895Z,23.06
2022-08-20T02:31:12.714Z,22.83
2022-08-20T02:36:34.793Z,22.69
2022-08-20T02:41:56.626Z,22.77
2022-08-20T02:47:18.695Z,22.97
2022-08-20T02:52:41.550Z,22.96
2022-08-20T02:58:13.516Z,22.85
2022-08-20T03:03:35.376Z,22.92
2022-08-20T03:08:57.246Z,22.72
2022-08-20T03:14:19.460Z,22.64
2022-08-20T03:19:41.288Z,22.35
2022-08-20T03:25:05.036Z,22.60
2022-08-20T03:30:28.530Z,22.39
2022-08-20T03:35:50.377Z,22.62
2022-08-20T03:41:12.218Z,22.52
2022-08-20T03:46:35.138Z,22.36
2022-08-20T03:51:57.645Z,22.54
2022-08-20T03:57:20.198Z,22.55
2022-08-20T04:02:42.057Z,22.77
2022-08-20T04:08:04.225Z,23.27
2022-08-20T04:13:29.841Z,23.56
2022-08-20T04:19:01.813Z,23.27
2022-08-20T04:24:31.530Z,23.44
2022-08-20T04:29:54.563Z,23.59
2022-08-20T04:35:16.899Z,23.80
2022-08-20T04:40:38.727Z,24.01
2022-08-20T04:46:04.180Z,23.92
2022-08-20T04:51:26.916Z,24.85
2022-08-20T04:56:48.897Z,25.51
2022-08-20T05:02:10.751Z,25.41
2022-08-20T05:07:45.953Z,24.45
2022-08-20T05:13:08.888Z,23.98
2022-08-20T05:18:31.820Z,24.11
2022-08-20T05:23:53.673Z,23.78
2022-08-20T05:29:16.689Z,23.73
2022-08-20T05:34:38.480Z,24.17
2022-08-20T05:40:00.354Z,24.29
2022-08-20T05:45:24.545Z,24.55
2022-08-20T05:50:48.199Z,24.59
2022-08-20T05:56:10.038Z,24.89
2022-08-20T06:01:34.196Z,24.91
2022-08-20T06:07:06.866Z,25.40
2022-08-20T06:12:28.643Z,25.72
2022-08-20T06:17:58.232Z,26.23
2022-08-20T06:23:20.548Z,25.98
2022-08-20T06:28:42.385Z,29.06
2022-08-20T06:34:04.275Z,28.33
2022-08-20T06:39:27.922Z,28.35
2022-08-20T06:44:49.756Z,26.78
2022-08-20T06:50:17.133Z,26.26
2022-08-20T06:55:48.494Z,25.79
2022-08-20T07:01:12.383Z,25.60
2022-08-20T07:06:34.565Z,26.40
2022-08-20T07:11:56.424Z,26.61
2022-08-20T07:17:18.243Z,28.01
2022-08-20T07:22:40.724Z,28.07
2022-08-20T07:28:11.513Z,26.96
2022-08-20T07:33:33.962Z,27.31
2022-08-20T07:38:56.858Z,27.93
2022-08-20T07:44:18.832Z,27.96
2022-08-20T07:49:40.725Z,27.71
2022-08-20T07:55:04.825Z,28.17
2022-08-20T08:00:26.683Z,29.10
2022-08-20T08:05:50.379Z,31.60
2022-08-20T08:11:12.272Z,32.33
2022-08-20T08:16:36.547Z,32.69
2022-08-20T08:21:58.747Z,32.60
2022-08-20T08:27:20.703Z,33.29
2022-08-20T08:32:43.083Z,31.95
2022-08-20T08:38:04.965Z,33.36
2022-08-20T08:43:31.198Z,31.93
2022-08-20T08:48:57.893Z,32.00
2022-08-20T08:54:22.456Z,30.91
2022-08-20T09:00:03.465Z,31.10
2022-08-20T09:05:34.929Z,31.45
2022-08-20T09:11:06.028Z,31.32
2022-08-20T09:16:27.995Z,31.12
2022-08-20T09:21:57.907Z,30.90
2022-08-20T09:27:19.913Z,31.71
2022-08-20T09:32:42.457Z,32.76
2022-08-20T09:38:04.437Z,32.20
2022-08-20T09:43:26.314Z,32.36
2022-08-20T09:48:48.155Z,31.90
2022-08-20T09:54:10.016Z,32.75
2022-08-20T09:59:33.567Z,32.92
2022-08-20T10:04:55.663Z,32.02
2022-08-20T10:10:19.422Z,32.44
2022-08-20T10:15:41.891Z,32.48
2022-08-20T10:21:09.993Z,31.91
2022-08-20T10:26:31.815Z,32.01
2022-08-20T10:31:54.265Z,31.06
2022-08-20T10:37:17.836Z,31.66
2022-08-20T10:42:42.583Z,31.08
2022-08-20T10:48:04.804Z,30.89
2022-08-20T10:53:26.977Z,30.89
2022-08-20T10:58:48.810Z,31.00
2022-08-20T11:04:10.671Z,31.10
2022-08-20T11:09:32.521Z,30.48
2022-08-20T11:14:54.887Z,31.00
2022-08-20T11:20:19.557Z,31.23
2022-08-20T11:25:41.445Z,30.95
2022-08-20T11:31:03.278Z,31.34
2022-08-20T11:36:25.159Z,31.85
2022-08-20T11:41:46.984Z,32.08
2022-08-20T11:47:24.005Z,31.48
2022-08-20T11:52:45.939Z,31.24
2022-08-20T11:58:09.341Z,31.10
2022-08-20T12:03:31.133Z,31.47
2022-08-20T12:08:52.921Z,31.14
2022-08-20T12:14:14.794Z,31.42
2022-08-20T12:19:38.504Z,31.92
2022-08-20T12:25:00.377Z,31.90
2022-08-20T12:30:23.866Z,32.08
2022-08-20T12:35:45.758Z,31.46
2022-08-20T12:41:07.599Z,31.85
2022-08-20T12:46:29.484Z,32.23
2022-08-20T12:51:51.357Z,32.38
2022-08-20T12:57:23.040Z,31.92
2022-08-20T13:02:44.945Z,32.57
2022-08-20T13:08:09.735Z,32.46
2022-08-20T13:13:31.528Z,32.26
2022-08-20T13:18:53.382Z,32.03
2022-08-20T13:24:15.230Z,31.92
2022-08-20T13:29:37.590Z,31.87
2022-08-20T13:34:59.649Z,31.24
2022-08-20T13:40:21.790Z,31.39
2022-08-20T13:45:43.732Z,31.43
2022-08-20T13:51:07.055Z,31.39
2022-08-20T13:56:28.981Z,31.39
2022-08-20T14:01:50.886Z,31.77
2022-08-20T14:07:18.606Z,31.65
2022-08-20T14:12:40.670Z,31.75
2022-08-20T14:18:03.570Z,31.77
2022-08-20T14:23:25.409Z,31.82
2022-08-20T14:28:47.230Z,31.97
2022-08-20T14:34:09.061Z,31.94
2022-08-20T14:39:30.863Z,32.09
2022-08-20T14:44:53.067Z,32.01
2022-08-20T14:50:21.321Z,31.74
2022-08-20T14:55:43.247Z,31.60
2022-08-20T15:01:05.229Z,31.35
2022-08-20T15:06:27.212Z,31.33
2022-08-20T15:11:49.873Z,31.22
2022-08-20T15:17:18.953Z,30.99
2022-08-20T15:22:41.967Z,31.00
2022-08-20T15:28:04.788Z,30.52
2022-08-20T15:33:26.663Z,30.60
2022-08-20T15:38:48.506Z,30.37
2022-08-20T15:44:10.357Z,30.13
2022-08-20T15:49:32.467Z,29.81
2022-08-20T15:54:55.058Z,29.82
2022-08-20T16:00:25.530Z,29.56
2022-08-20T16:05:56.250Z,29.62
2022-08-20T16:11:46.145Z,29.69
2022-08-20T16:17:12.868Z,29.51
2022-08-20T16:22:37.152Z,29.61
2022-08-20T16:28:25.108Z,29.48
2022-08-20T16:34:34.833Z,29.24
2022-08-20T16:40:18.097Z,29.34
2022-08-20T16:46:11.162Z,29.08
2022-08-20T16:51:51.388Z,28.95
2022-08-20T16:57:17.389Z,28.88
2022-08-20T17:02:49.663Z,28.17
2022-08-20T17:08:31.203Z,28.19
2022-08-20T17:14:04.985Z,27.92
2022-08-20T17:19:32.126Z,27.75
2022-08-20T17:24:54.927Z,27.70
2022-08-20T17:30:27.088Z,27.59
2022-08-20T17:35:53.641Z,27.34
2022-08-20T17:41:30.864Z,27.31
2022-08-20T17:46:53.765Z,27.17
2022-08-20T17:52:33.003Z,27.20
2022-08-20T17:57:59.366Z,27.04
2022-08-20T18:03:25.815Z,27.12
2022-08-20T18:08:57.194Z,26.92
2022-08-20T18:14:25.831Z,26.71
2022-08-20T18:20:24.988Z,26.65
2022-08-20T18:25:57.576Z,26.40
2022-08-20T18:31:29.695Z,26.27
2022-08-20T18:37:00.197Z,26.13
2022-08-20T18:42:34.248Z,25.87
2022-08-20T18:47:56.492Z,25.93
2022-08-20T18:53:34.259Z,25.90
2022-08-20T18:59:17.485Z,25.78
2022-08-20T19:04:39.308Z,25.63
2022-08-20T19:10:34.425Z,25.64
2022-08-20T19:16:07.890Z,25.43
2022-08-20T19:21:33.055Z,25.43
2022-08-20T19:27:02.228Z,25.35
2022-08-20T19:32:27.412Z,25.39
2022-08-20T19:37:51.011Z,25.24
2022-08-20T19:43:19.597Z,25.11
2022-08-20T19:49:06.807Z,25.09
2022-08-20T19:54:29.306Z,25.04
2022-08-20T19:59:57.375Z,24.91
2022-08-20T20:05:19.330Z,24.82
2022-08-20T20:10:41.216Z,24.77
2022-08-20T20:16:04.430Z,24.76
2022-08-20T20:21:42.208Z,24.73
2022-08-20T20:27:09.014Z,24.73
2022-08-20T20:32:41.049Z,24.70
2022-08-20T20:38:06.372Z,24.57
2022-08-20T20:43:35.771Z,24.62
2022-08-20T20:49:08.759Z,24.57
2022-08-20T20:54:41.190Z,24.56
2022-08-20T21:00:05.546Z,24.34
2022-08-20T21:05:28.849Z,24.04
2022-08-20T21:10:50.694Z,23.91
2022-08-20T21:16:12.719Z,23.92
2022-08-20T21:21:36.061Z,23.90
2022-08-20T21:26:59.003Z,23.83
2022-08-20T21:32:21.449Z,23.71
2022-08-20T21:37:43.774Z,23.74
2022-08-20T21:43:06.123Z,23.71
2022-08-20T21:48:27.975Z,23.71
2022-08-20T21:53:49.948Z,23.79
2022-08-20T21:59:12.210Z,23.81
2022-08-20T22:04:35.604Z,23.70
2022-08-20T22:09:57.710Z,23.54
2022-08-20T22:15:19.802Z,23.60
2022-08-20T22:20:42.765Z,23.57
2022-08-20T22:26:04.583Z,23.68
2022-08-20T22:31:30.386Z,23.47
2022-08-20T22:36:54.523Z,23.56
2022-08-20T22:42:16.414Z,23.48
2022-08-20T22:47:38.341Z,23.41
2022-08-20T22:53:01.784Z,23.26
2022-08-20T22:58:30.346Z,23.21
2022-08-20T23:03:53.361Z,23.13
2022-08-20T23:09:15.374Z,23.09
2022-08-20T23:14:43.068Z,23.09
2022-08-20T23:20:10.964Z,22.93
2022-08-20T23:25:33.724Z,22.85
2022-08-20T23:30:55.567Z,22.88
2022-08-20T23:36:19.944Z,22.65
2022-08-20T23:41:47.588Z,22.65
2022-08-20T23:47:14.349Z,22.57
2022-08-20T23:52:36.577Z,22.37
2022-08-20T23:57:58.668Z,22.45
